createdAt,value
2023-04-02T19:32:12.469Z,7.82
2023-04-02T19:33:12.399Z,8.00
2023-04-02T19:34:13.094Z,8.10
2023-04-02T19:35:13.069Z,8.17
2023-04-02T19:36:12.476Z,8.23
2023-04-02T19:37:12.374Z,8.30
2023-04-02T19:38:12.367Z,8.33
2023-04-02T19:39:13.049Z,8.37
2023-04-02T19:40:12.361Z,8.42
2023-04-02T19:41:13.272Z,8.47
2023-04-02T19:42:13.262Z,8.50
2023-04-02T19:43:12.996Z,8.55
2023-04-02T19:44:13.323Z,8.60
2023-04-02T19:45:12.311Z,8.65
2023-04-02T19:46:13.265Z,8.69
2023-04-02T19:47:12.949Z,8.73
2023-04-02T19:48:12.388Z,8.77
2023-04-02T19:49:13.218Z,8.81
2023-04-02T19:50:12.903Z,8.84
2023-04-02T19:51:13.183Z,8.87
2023-04-02T19:52:13.170Z,8.90
2023-04-02T19:53:12.883Z,8.93
2023-04-02T19:54:12.915Z,8.96
2023-04-02T19:55:12.848Z,8.98
2023-04-02T19:56:13.109Z,9.01
2023-04-02T19:57:12.228Z,9.03
2023-04-02T19:58:19.289Z,9.07
2023-04-02T20:00:12.802Z,9.11
2023-04-02T20:01:12.814Z,9.14
2023-04-02T20:02:12.101Z,9.16
2023-04-02T20:03:12.083Z,9.17
2023-04-02T20:04:12.231Z,9.19
2023-04-02T20:05:12.109Z,9.20
2023-04-02T20:06:12.747Z,9.21
2023-04-02T20:07:12.732Z,9.21
2023-04-02T20:08:12.722Z,9.22
2023-04-02T20:09:12.032Z,9.23
2023-04-02T20:10:12.683Z,9.24
2023-04-02T20:11:12.695Z,9.24
2023-04-02T20:12:12.677Z,9.26
2023-04-02T20:13:11.998Z,9.25
2023-04-02T20:14:11.986Z,9.26
2023-04-02T20:15:11.981Z,9.25
2023-04-02T20:16:12.690Z,9.25
2023-04-02T20:17:12.626Z,9.25
2023-04-02T20:18:11.933Z,9.25
2023-04-02T20:19:11.937Z,9.24
2023-04-02T20:20:12.587Z,9.25
2023-04-02T20:21:11.889Z,9.25
2023-04-02T20:22:12.571Z,9.24
2023-04-02T20:23:12.560Z,9.25
2023-04-02T20:24:12.551Z,9.26
2023-04-02T20:25:11.895Z,9.23
2023-04-02T20:26:11.849Z,9.22
2023-04-02T20:27:11.837Z,9.22
2023-04-02T20:28:11.814Z,9.22
2023-04-02T20:29:12.493Z,9.21
2023-04-02T20:30:12.470Z,9.20
2023-04-02T20:31:13.449Z,9.20
2023-04-02T20:32:11.769Z,9.20
2023-04-02T20:33:11.910Z,9.18
2023-04-02T20:34:12.694Z,9.18
2023-04-02T20:35:12.419Z,9.14
2023-04-02T20:36:12.421Z,9.10
2023-04-02T20:37:11.729Z,9.07
2023-04-02T20:38:12.431Z,9.04
2023-04-02T20:39:11.692Z,9.02
2023-04-02T20:40:11.705Z,9.00
2023-04-02T20:41:12.367Z,8.97
2023-04-02T20:42:11.668Z,8.93
2023-04-02T20:43:11.676Z,8.92
2023-04-02T20:44:12.338Z,8.89
2023-04-02T20:45:11.655Z,8.87
2023-04-02T20:46:12.297Z,8.84
2023-04-02T20:47:11.617Z,8.82
2023-04-02T20:48:12.298Z,8.79
2023-04-02T20:49:11.623Z,8.78
2023-04-02T20:50:12.254Z,8.76
2023-04-02T20:51:11.565Z,8.74
2023-04-02T20:52:12.253Z,8.71
2023-04-02T20:53:12.244Z,8.70
2023-04-02T20:54:11.541Z,8.67
2023-04-02T20:55:11.546Z,8.65
2023-04-02T20:56:11.522Z,8.62
2023-04-02T20:57:12.207Z,8.59
2023-04-02T20:58:11.515Z,8.55
2023-04-02T20:59:12.172Z,8.53
2023-04-02T21:00:12.177Z,8.50
2023-04-02T21:01:12.169Z,8.48
2023-04-02T21:02:11.448Z,8.45
2023-04-02T21:03:11.457Z,8.42
2023-04-02T21:04:11.425Z,8.39
2023-04-02T21:05:11.486Z,8.36
2023-04-02T21:06:12.112Z,8.34
2023-04-02T21:07:12.352Z,8.32
2023-04-02T21:08:12.074Z,8.29
2023-04-02T21:09:12.064Z,8.26
2023-04-02T21:10:12.039Z,8.23
2023-04-02T21:11:12.325Z,8.22
2023-04-02T21:12:12.299Z,8.20
2023-04-02T21:13:12.278Z,8.17
2023-04-02T21:14:12.779Z,8.15
2023-04-02T21:15:12.281Z,8.13
2023-04-02T21:16:12.186Z,8.11
2023-04-02T21:17:11.980Z,8.08
2023-04-02T21:18:11.288Z,8.06
2023-04-02T21:19:11.956Z,8.04
2023-04-02T21:20:12.506Z,8.03
2023-04-02T21:21:11.256Z,8.00
2023-04-02T21:22:11.929Z,7.98
2023-04-02T21:23:11.223Z,7.96
2023-04-02T21:24:11.210Z,7.93
2023-04-02T21:25:11.251Z,7.91
2023-04-02T21:26:11.883Z,7.90
2023-04-02T21:27:11.864Z,7.88
2023-04-02T21:28:11.857Z,7.87
2023-04-02T21:29:11.172Z,7.84
2023-04-02T21:30:11.166Z,7.82
2023-04-02T21:31:11.897Z,7.80
2023-04-02T21:32:20.929Z,7.79
2023-04-02T21:33:12.111Z,7.76
2023-04-02T21:34:11.091Z,7.75
2023-04-02T21:35:11.760Z,7.73
2023-04-02T21:36:11.859Z,7.70
2023-04-02T21:37:11.066Z,7.70
2023-04-02T21:38:11.742Z,7.66
2023-04-02T21:39:11.061Z,7.65
2023-04-02T21:40:11.062Z,7.62
2023-04-02T21:41:11.034Z,7.60
2023-04-02T21:42:11.009Z,7.58
2023-04-02T21:43:11.692Z,7.58
2023-04-02T21:44:11.682Z,7.55
2023-04-02T21:45:10.986Z,7.54
2023-04-02T21:46:10.972Z,7.53
2023-04-02T21:47:11.098Z,7.51
2023-04-02T21:48:10.950Z,7.50
2023-04-02T21:49:11.641Z,7.48
2023-04-02T21:50:11.599Z,7.47
2023-04-02T21:51:10.926Z,7.45
2023-04-02T21:52:10.898Z,7.44
2023-04-02T21:53:11.581Z,7.44
2023-04-02T21:54:11.583Z,7.42
2023-04-02T21:55:10.895Z,7.41
2023-04-02T21:56:10.888Z,7.39
2023-04-02T21:57:11.586Z,7.38
2023-04-02T21:58:10.841Z,7.36
2023-04-02T21:59:10.849Z,7.34
2023-04-02T22:00:11.490Z,7.33
2023-04-02T22:01:23.899Z,7.31
2023-04-02T22:02:11.791Z,7.29
2023-04-02T22:03:13.569Z,7.28
2023-04-02T22:04:12.496Z,7.26
2023-04-02T22:05:11.424Z,7.24
2023-04-02T22:06:11.427Z,7.23
2023-04-02T22:07:10.764Z,7.22
2023-04-02T22:08:10.735Z,7.21
2023-04-02T22:09:11.438Z,7.19
2023-04-02T22:10:10.734Z,7.16
2023-04-02T22:11:10.716Z,7.16
2023-04-02T22:12:10.690Z,7.14
2023-04-02T22:13:11.369Z,7.12
2023-04-02T22:14:11.358Z,7.10
2023-04-02T22:15:10.654Z,7.08
2023-04-02T22:16:10.679Z,7.06
2023-04-02T22:17:11.323Z,7.04
2023-04-02T22:18:11.319Z,7.02
2023-04-02T22:19:11.316Z,7.01
2023-04-02T22:20:10.615Z,6.99
2023-04-02T22:21:11.268Z,6.98
2023-04-02T22:22:11.277Z,6.97
2023-04-02T22:23:10.574Z,6.95
2023-04-02T22:24:11.248Z,6.93
2023-04-02T22:25:10.562Z,6.92
2023-04-02T22:26:10.550Z,6.91
2023-04-02T22:27:10.532Z,6.90
2023-04-02T22:28:10.520Z,6.89
2023-04-02T22:29:11.201Z,6.87
2023-04-02T22:30:10.523Z,6.86
2023-04-02T22:31:10.516Z,6.84
2023-04-02T22:32:10.460Z,6.83
2023-04-02T22:33:10.510Z,6.82
2023-04-02T22:34:11.147Z,6.81
2023-04-02T22:35:10.452Z,6.78
2023-04-02T22:36:10.502Z,6.77
2023-04-02T22:37:10.431Z,6.76
2023-04-02T22:38:11.101Z,6.74
2023-04-02T22:39:10.461Z,6.72
2023-04-02T22:40:10.390Z,6.71
2023-04-02T22:41:11.055Z,6.69
2023-04-02T22:42:11.065Z,6.67
2023-04-02T22:43:10.392Z,6.66
2023-04-02T22:44:11.032Z,6.66
2023-04-02T22:45:10.340Z,6.64
2023-04-02T22:46:10.369Z,6.63
2023-04-02T22:47:11.006Z,6.62
2023-04-02T22:48:10.324Z,6.60
2023-04-02T22:49:10.991Z,6.58
2023-04-02T22:50:10.277Z,6.57
2023-04-02T22:51:10.288Z,6.56
2023-04-02T22:52:10.260Z,6.55
2023-04-02T22:53:10.943Z,6.53
2023-04-02T22:54:10.940Z,6.51
2023-04-02T22:55:10.922Z,6.49
2023-04-02T22:56:10.241Z,6.48
2023-04-02T22:57:10.252Z,6.46
2023-04-02T22:58:10.225Z,6.45
2023-04-02T22:59:10.903Z,6.43
2023-04-02T23:00:10.861Z,6.42
2023-04-02T23:01:10.204Z,6.39
2023-04-02T23:02:10.152Z,6.39
2023-04-02T23:03:10.836Z,6.37
2023-04-02T23:04:10.825Z,6.35
2023-04-02T23:05:11.096Z,6.34
2023-04-02T23:06:10.798Z,6.32
2023-04-02T23:07:10.130Z,6.30
2023-04-02T23:08:11.045Z,6.29
2023-04-02T23:09:10.770Z,6.29
2023-04-02T23:10:10.757Z,6.27
2023-04-02T23:11:10.071Z,6.25
2023-04-02T23:12:10.736Z,6.23
2023-04-02T23:13:11.975Z,6.22
2023-04-02T23:14:10.015Z,6.21
2023-04-02T23:15:10.704Z,6.20
2023-04-02T23:16:10.740Z,6.19
2023-04-02T23:17:09.986Z,6.18
2023-04-02T23:18:09.988Z,6.16
2023-04-02T23:19:10.671Z,6.14
2023-04-02T23:20:09.977Z,6.13
2023-04-02T23:21:09.979Z,6.10
2023-04-02T23:22:09.941Z,6.09
2023-04-02T23:23:10.617Z,6.07
2023-04-02T23:24:10.611Z,6.05
2023-04-02T23:25:09.910Z,6.04
2023-04-02T23:26:09.950Z,6.01
2023-04-02T23:27:09.892Z,6.00
2023-04-02T23:28:09.911Z,5.98
2023-04-02T23:29:09.847Z,5.97
2023-04-02T23:30:10.538Z,5.94
2023-04-02T23:31:09.861Z,5.93
2023-04-02T23:32:09.822Z,5.91
2023-04-02T23:33:10.521Z,5.90
2023-04-02T23:34:10.502Z,5.88
2023-04-02T23:35:10.489Z,5.86
2023-04-02T23:36:10.522Z,5.85
2023-04-02T23:37:09.783Z,5.83
2023-04-02T23:38:09.816Z,5.82
2023-04-02T23:39:10.451Z,5.80
2023-04-02T23:40:10.442Z,5.79
2023-04-02T23:41:10.407Z,5.77
2023-04-02T23:42:11.168Z,5.77
2023-04-02T23:43:10.399Z,5.75
2023-04-02T23:44:10.415Z,5.74
2023-04-02T23:45:09.702Z,5.73
2023-04-02T23:46:10.411Z,5.72
2023-04-02T23:47:10.426Z,5.71
2023-04-02T23:48:09.675Z,5.70
2023-04-02T23:49:09.658Z,5.69
2023-04-02T23:50:09.653Z,5.68
2023-04-02T23:51:09.657Z,5.67
2023-04-02T23:52:10.311Z,5.66
2023-04-02T23:53:10.309Z,5.65
2023-04-02T23:54:10.305Z,5.64
2023-04-02T23:55:10.286Z,5.63
2023-04-02T23:56:10.253Z,5.63
2023-04-02T23:57:10.293Z,5.62
2023-04-02T23:58:10.244Z,5.62
2023-04-02T23:59:10.236Z,5.61
